createdAt,value
2023-05-05T00:01:34.303Z,101209.19
2023-05-05T00:04:13.985Z,101200.31
2023-05-05T00:06:49.983Z,101206.28
2023-05-05T00:09:33.764Z,101207.66
2023-05-05T00:12:12.698Z,101202.06
2023-05-05T00:14:47.526Z,101182.69
2023-05-05T00:17:22.633Z,101171.72
2023-05-05T00:20:01.101Z,101185.69
2023-05-05T00:22:34.876Z,101200.47
2023-05-05T00:25:34.596Z,101187.56
2023-05-05T00:28:07.936Z,101204.56
2023-05-05T00:30:51.030Z,101169.34
2023-05-05T00:33:31.135Z,101207.00
2023-05-05T00:36:05.689Z,101202.72
2023-05-05T00:38:49.898Z,101169.91
2023-05-05T00:41:36.814Z,101203.50
2023-05-05T00:44:15.006Z,101192.78
2023-05-05T00:46:53.071Z,101193.34
2023-05-05T00:49:28.503Z,101209.22
2023-05-05T00:52:05.731Z,101198.19
2023-05-05T00:54:41.317Z,101198.44
2023-05-05T00:57:27.645Z,101196.56
2023-05-05T01:00:08.884Z,101192.06
2023-05-05T01:02:42.576Z,101176.44
2023-05-05T01:05:35.167Z,101206.81
2023-05-05T01:08:33.739Z,101193.63
2023-05-05T01:11:20.804Z,101202.53
2023-05-05T01:14:18.235Z,101199.28
2023-05-05T01:17:09.314Z,101200.41
2023-05-05T01:20:20.846Z,101198.00
2023-05-05T01:23:12.809Z,101191.03
2023-05-05T01:26:12.864Z,101205.03
2023-05-05T01:29:09.708Z,101200.72
2023-05-05T01:32:11.177Z,101194.22
2023-05-05T01:35:01.604Z,101186.44
2023-05-05T01:37:49.123Z,101196.94
2023-05-05T01:40:25.266Z,101180.28
2023-05-05T01:43:03.466Z,101202.88
2023-05-05T01:45:50.210Z,101175.97
2023-05-05T01:48:34.473Z,101181.91
2023-05-05T01:51:22.661Z,101201.56
2023-05-05T01:54:01.631Z,101196.19
2023-05-05T01:56:44.810Z,101171.19
2023-05-05T01:59:24.194Z,101200.53
2023-05-05T02:02:22.340Z,101192.72
2023-05-05T02:04:59.003Z,101193.00
2023-05-05T02:07:51.236Z,101186.25
2023-05-05T02:10:29.651Z,101170.16
2023-05-05T02:13:05.712Z,101179.81
2023-05-05T02:15:47.165Z,101177.69
2023-05-05T02:18:25.934Z,101183.34
2023-05-05T02:21:07.827Z,101193.59
2023-05-05T02:23:46.625Z,101191.41
2023-05-05T02:26:28.229Z,101191.41
2023-05-05T02:29:09.487Z,101184.22
2023-05-05T02:31:57.913Z,101188.78
2023-05-05T02:34:43.222Z,101190.91
2023-05-05T02:37:30.286Z,101185.53
2023-05-05T02:40:12.288Z,101187.72
2023-05-05T02:42:50.691Z,101162.16
2023-05-05T02:45:27.389Z,101193.38
2023-05-05T02:48:08.490Z,101151.72
2023-05-05T02:50:47.484Z,101175.09
2023-05-05T02:53:32.770Z,101172.97
2023-05-05T02:56:29.826Z,101195.00
2023-05-05T02:59:16.544Z,101175.66
2023-05-05T03:02:09.368Z,101189.38
2023-05-05T03:04:46.810Z,101161.94
2023-05-05T03:07:30.145Z,101189.38
2023-05-05T03:10:18.620Z,101154.09
2023-05-05T03:13:00.973Z,101169.19
2023-05-05T03:16:00.299Z,101191.25
2023-05-05T03:18:40.579Z,101184.25
2023-05-05T03:21:23.099Z,101189.88
2023-05-05T03:24:03.586Z,101197.69
2023-05-05T03:26:46.458Z,101183.16
2023-05-05T03:29:27.740Z,101196.34
2023-05-05T03:32:19.277Z,101196.63
2023-05-05T03:35:02.945Z,101163.25
2023-05-05T03:37:49.816Z,101195.03
2023-05-05T03:40:36.306Z,101198.81
2023-05-05T03:43:15.568Z,101188.59
2023-05-05T03:45:49.923Z,101188.84
2023-05-05T03:48:32.752Z,101189.16
2023-05-05T03:51:19.233Z,101196.41
2023-05-05T03:53:58.264Z,101179.72
2023-05-05T03:56:34.746Z,101191.81
2023-05-05T03:59:21.077Z,101194.53
2023-05-05T04:02:00.386Z,101193.47
2023-05-05T04:04:42.264Z,101201.81
2023-05-05T04:07:16.923Z,101198.03
2023-05-05T04:09:49.946Z,101209.09
2023-05-05T04:12:29.031Z,101207.19
2023-05-05T04:15:18.382Z,101209.09
2023-05-05T04:18:03.804Z,101206.38
2023-05-05T04:20:45.632Z,101204.50
2023-05-05T04:23:24.966Z,101210.44
2023-05-05T04:26:00.358Z,101212.59
2023-05-05T04:28:37.224Z,101203.44
2023-05-05T04:31:14.214Z,101212.31
2023-05-05T04:33:51.878Z,101216.88
2023-05-05T04:36:26.655Z,101220.09
2023-05-05T04:39:04.968Z,101206.34
2023-05-05T04:41:59.441Z,101223.03
2023-05-05T04:44:37.145Z,101204.44
2023-05-05T04:47:18.245Z,101214.38
2023-05-05T04:49:54.130Z,101186.63
2023-05-05T04:52:39.079Z,101222.13
2023-05-05T04:55:17.643Z,101215.41
2023-05-05T04:57:55.115Z,101210.50
2023-05-05T05:00:32.171Z,101225.06
2023-05-05T05:03:12.509Z,101216.69
2023-05-05T05:05:48.536Z,101226.38
2023-05-05T05:08:25.624Z,101219.66
2023-05-05T05:11:05.922Z,101221.53
2023-05-05T05:13:44.939Z,101218.53
2023-05-05T05:16:16.306Z,101229.28
2023-05-05T05:18:56.541Z,101238.69
2023-05-05T05:21:33.437Z,101233.59
2023-05-05T05:24:07.911Z,101233.59
2023-05-05T05:26:43.316Z,101228.94
2023-05-05T05:29:18.103Z,101234.59
2023-05-05T05:31:53.299Z,101238.91
2023-05-05T05:34:37.991Z,101239.44
2023-05-05T05:37:12.443Z,101237.59
2023-05-05T05:39:52.066Z,101211.72
2023-05-05T05:42:31.859Z,101235.94
2023-05-05T05:45:06.595Z,101226.56
2023-05-05T05:47:40.079Z,101222.19
2023-05-05T05:50:29.548Z,101230.22
2023-05-05T05:53:13.115Z,101202.19
2023-05-05T05:55:52.245Z,101235.19
2023-05-05T05:58:31.780Z,101241.66
2023-05-05T06:01:07.858Z,101190.75
2023-05-05T06:03:49.098Z,101213.25
2023-05-05T06:06:27.183Z,101232.47
2023-05-05T06:09:03.860Z,101209.84
2023-05-05T06:11:44.045Z,101240.63
2023-05-05T06:14:20.168Z,101245.97
2023-05-05T06:16:58.173Z,101243.72
2023-05-05T06:19:46.578Z,101240.63
2023-05-05T06:22:22.032Z,101242.78
2023-05-05T06:24:57.748Z,101219.44
2023-05-05T06:27:40.068Z,101240.22
2023-05-05T06:30:29.565Z,101245.22
2023-05-05T06:33:01.188Z,101239.97
2023-05-05T06:35:40.268Z,101243.16
2023-05-05T06:38:18.166Z,101225.81
2023-05-05T06:40:58.887Z,101233.97
2023-05-05T06:43:33.600Z,101236.31
2023-05-05T06:46:15.394Z,101244.75
2023-05-05T06:48:51.596Z,101245.22
2023-05-05T06:51:25.716Z,101231.59
2023-05-05T06:54:07.108Z,101242.25
2023-05-05T06:56:48.238Z,101243.22
2023-05-05T06:59:21.491Z,101243.50
2023-05-05T07:01:59.083Z,101244.22
2023-05-05T07:04:40.551Z,101251.09
2023-05-05T07:07:14.070Z,101241.88
2023-05-05T07:09:57.154Z,101216.34
2023-05-05T07:12:40.147Z,101246.28
2023-05-05T07:15:29.296Z,101246.56
2023-05-05T07:18:06.885Z,101247.78
2023-05-05T07:20:44.557Z,101254.56
2023-05-05T07:23:23.403Z,101221.91
2023-05-05T07:26:05.186Z,101234.28
2023-05-05T07:28:45.685Z,101236.84
2023-05-05T07:31:30.530Z,101222.78
2023-05-05T07:34:19.421Z,101241.28
2023-05-05T07:36:57.970Z,101237.97
2023-05-05T07:39:40.816Z,101232.63
2023-05-05T07:42:23.208Z,101223.78
2023-05-05T07:45:01.252Z,101242.88
2023-05-05T07:47:41.908Z,101245.88
2023-05-05T07:50:16.808Z,101237.91
2023-05-05T07:52:54.001Z,101240.81
2023-05-05T07:55:43.895Z,101238.50
2023-05-05T07:58:47.609Z,101246.59
2023-05-05T08:01:22.219Z,101240.38
2023-05-05T08:04:13.410Z,101239.84
2023-05-05T08:06:57.294Z,101241.69
2023-05-05T08:09:40.727Z,101246.59
2023-05-05T08:12:22.410Z,101238.72
2023-05-05T08:15:01.463Z,101237.16
2023-05-05T08:17:51.524Z,101195.00
2023-05-05T08:20:32.959Z,101243.19
2023-05-05T08:23:07.572Z,101251.91
2023-05-05T08:25:50.421Z,101247.34
2023-05-05T08:28:29.143Z,101244.34
2023-05-05T08:31:18.819Z,101245.69
2023-05-05T08:33:55.753Z,101245.75
2023-05-05T08:36:29.388Z,101230.50
2023-05-05T08:39:14.270Z,101209.41
2023-05-05T08:41:48.143Z,101251.56
2023-05-05T08:44:29.828Z,101249.97
2023-05-05T08:47:14.325Z,101246.94
2023-05-05T08:50:00.335Z,101230.75
2023-05-05T08:52:42.171Z,101244.06
2023-05-05T08:55:22.673Z,101235.44
2023-05-05T08:58:04.804Z,101239.78
2023-05-05T09:00:42.975Z,101234.94
2023-05-05T09:03:18.879Z,101233.19
2023-05-05T09:05:55.666Z,101234.41
2023-05-05T09:08:46.928Z,101234.22
2023-05-05T09:11:24.200Z,101235.53
2023-05-05T09:16:47.388Z,101220.13
2023-05-05T09:19:33.441Z,101234.22
2023-05-05T09:22:09.000Z,101224.44
2023-05-05T09:25:07.480Z,101219.31
2023-05-05T09:27:48.054Z,101225.53
2023-05-05T09:30:33.158Z,101212.06
2023-05-05T09:33:14.412Z,101216.88
2023-05-05T09:36:08.978Z,101211.06
2023-05-05T09:38:49.121Z,101206.06
2023-05-05T09:41:48.638Z,101209.69
2023-05-05T09:44:42.813Z,101209.38
2023-05-05T09:47:28.552Z,101203.88
2023-05-05T09:50:08.096Z,101199.50
2023-05-05T09:52:41.393Z,101195.38
2023-05-05T09:55:31.790Z,101184.00
2023-05-05T09:58:30.603Z,101190.16
2023-05-05T10:01:27.110Z,101187.44
2023-05-05T10:03:58.391Z,101173.50
2023-05-05T10:06:47.841Z,101145.25
2023-05-05T10:09:38.259Z,101157.38
2023-05-05T10:12:20.452Z,101171.25
2023-05-05T10:15:01.163Z,101171.25
2023-05-05T10:17:53.883Z,101165.31
2023-05-05T10:20:41.822Z,101160.31
2023-05-05T10:23:26.463Z,101160.03
2023-05-05T10:26:11.416Z,101158.31
2023-05-05T10:28:49.998Z,101161.31
2023-05-05T10:31:41.773Z,101150.50
2023-05-05T10:34:24.737Z,101154.88
2023-05-05T10:37:19.287Z,101154.97
2023-05-05T10:39:59.345Z,101120.25
2023-05-05T10:42:35.342Z,101150.81
2023-05-05T10:45:27.148Z,101141.66
2023-05-05T10:48:04.607Z,101135.34
2023-05-05T10:50:53.726Z,101131.13
2023-05-05T10:53:43.843Z,101120.72
2023-05-05T10:56:33.710Z,101134.84
2023-05-05T10:59:31.734Z,101128.44
2023-05-05T11:02:05.040Z,101109.75
2023-05-05T11:04:38.145Z,101125.16
2023-05-05T11:07:35.588Z,101118.09
2023-05-05T11:10:08.143Z,101093.34
2023-05-05T11:13:10.346Z,101109.81
2023-05-05T11:15:48.591Z,101112.66
2023-05-05T11:18:44.771Z,101116.44
2023-05-05T11:21:29.248Z,101099.22
2023-05-05T11:24:34.806Z,101093.28
2023-05-05T11:27:13.350Z,101087.56
2023-05-05T11:30:17.110Z,101089.47
2023-05-05T11:33:29.817Z,101089.34
2023-05-05T11:36:06.021Z,101082.34
2023-05-05T11:38:57.124Z,101083.13
2023-05-05T11:42:24.448Z,101060.47
2023-05-05T11:45:08.540Z,101072.53
2023-05-05T11:47:50.414Z,101066.88
2023-05-05T11:50:31.507Z,101052.91
2023-05-05T11:53:11.946Z,101061.28
2023-05-05T11:55:57.404Z,101052.91
2023-05-05T11:58:33.233Z,101057.16
2023-05-05T12:01:17.590Z,101048.59
2023-05-05T12:03:58.789Z,101050.38
2023-05-05T12:06:43.405Z,101042.03
2023-05-05T12:09:19.228Z,101047.63
2023-05-05T12:12:12.316Z,101037.72
2023-05-05T12:14:58.929Z,101025.78
2023-05-05T12:17:42.911Z,101034.84
2023-05-05T12:20:19.196Z,101031.72
2023-05-05T12:22:57.044Z,101029.84
2023-05-05T12:25:43.304Z,101011.22
2023-05-05T12:28:23.901Z,101025.56
2023-05-05T12:31:09.256Z,101024.19
2023-05-05T12:33:48.401Z,101016.97
2023-05-05T12:36:38.609Z,101028.16
2023-05-05T12:39:16.700Z,101014.84
2023-05-05T12:41:59.673Z,101016.75
2023-05-05T12:44:50.818Z,101006.25
2023-05-05T12:47:35.474Z,101006.97
2023-05-05T12:50:20.299Z,101001.94
2023-05-05T12:53:17.892Z,100998.75
2023-05-05T12:56:00.721Z,100996.47
2023-05-05T12:59:04.593Z,100995.19
2023-05-05T13:01:56.404Z,100982.84
2023-05-05T13:04:38.575Z,100983.59
2023-05-05T13:07:20.963Z,100973.47
2023-05-05T13:09:56.401Z,100974.03
2023-05-05T13:12:32.581Z,100968.03
2023-05-05T13:15:11.425Z,100962.50
2023-05-05T13:17:51.455Z,100937.13
2023-05-05T13:20:41.248Z,100953.03
2023-05-05T13:23:18.877Z,100949.72
2023-05-05T13:26:02.474Z,100936.50
2023-05-05T13:28:40.693Z,100928.41
2023-05-05T13:31:15.153Z,100937.84
2023-05-05T13:33:47.306Z,100928.44
2023-05-05T13:36:35.116Z,100930.19
2023-05-05T13:39:13.742Z,100941.41
2023-05-05T13:41:56.306Z,100932.94
2023-05-05T13:44:42.884Z,100922.88
2023-05-05T13:47:23.224Z,100937.06
2023-05-05T13:50:01.229Z,100921.53
2023-05-05T13:52:37.811Z,100924.09
2023-05-05T13:55:15.175Z,100924.69
2023-05-05T13:57:52.768Z,100921.78
2023-05-05T14:03:11.690Z,100924.25
2023-05-05T14:05:52.418Z,100923.53
2023-05-05T14:08:35.238Z,100927.75
2023-05-05T14:11:07.736Z,100920.41
2023-05-05T14:13:48.413Z,100929.56
2023-05-05T14:16:34.852Z,100914.09
2023-05-05T14:19:19.297Z,100919.09
2023-05-05T14:21:57.506Z,100914.50
2023-05-05T14:24:36.871Z,100914.16
2023-05-05T14:27:14.365Z,100908.91
2023-05-05T14:29:50.365Z,100910.94
2023-05-05T14:32:28.469Z,100911.38
2023-05-05T14:35:09.747Z,100913.00
2023-05-05T14:37:47.642Z,100900.00
2023-05-05T14:40:21.643Z,100892.16
2023-05-05T14:43:01.508Z,100900.44
2023-05-05T14:45:35.811Z,100888.63
2023-05-05T14:48:13.668Z,100894.91
2023-05-05T14:50:50.211Z,100888.59
2023-05-05T14:53:29.440Z,100891.66
2023-05-05T14:56:19.090Z,100882.44
2023-05-05T14:58:58.023Z,100885.50
2023-05-05T15:01:44.856Z,100885.81
2023-05-05T15:04:35.306Z,100881.28
2023-05-05T15:07:06.987Z,100883.63
2023-05-05T15:09:44.289Z,100883.50
2023-05-05T15:12:26.183Z,100877.84
2023-05-05T15:15:00.330Z,100882.53
2023-05-05T15:17:41.467Z,100898.06
2023-05-05T15:20:18.487Z,100891.53
2023-05-05T15:22:58.343Z,100890.69
2023-05-05T15:25:33.069Z,100892.97
2023-05-05T15:28:07.002Z,100886.97
2023-05-05T15:30:45.902Z,100883.38
2023-05-05T15:33:31.592Z,100887.31
2023-05-05T15:36:07.401Z,100887.16
2023-05-05T15:38:54.892Z,100889.50
2023-05-05T15:41:32.657Z,100878.97
2023-05-05T15:44:08.594Z,100882.75
2023-05-05T15:46:42.590Z,100877.75
2023-05-05T15:49:23.187Z,100877.69
2023-05-05T15:52:07.879Z,100877.41
2023-05-05T15:54:56.318Z,100874.38
2023-05-05T15:57:36.585Z,100867.28
2023-05-05T16:00:17.570Z,100861.94
2023-05-05T16:02:50.905Z,100863.84
2023-05-05T16:05:29.716Z,100867.81
2023-05-05T16:08:16.541Z,100870.25
2023-05-05T16:10:52.670Z,100871.53
2023-05-05T16:13:34.893Z,100869.66
2023-05-05T16:16:23.926Z,100873.69
2023-05-05T16:19:12.312Z,100876.03
2023-05-05T16:21:48.065Z,100865.81
2023-05-05T16:24:26.570Z,100831.94
2023-05-05T16:27:12.260Z,100860.19
2023-05-05T16:29:46.656Z,100865.34
2023-05-05T16:32:34.255Z,100860.53
2023-05-05T16:35:12.423Z,100863.75
2023-05-05T16:37:57.897Z,100849.00
2023-05-05T16:40:34.796Z,100864.88
2023-05-05T16:43:12.786Z,100869.09
2023-05-05T16:45:44.883Z,100871.78
2023-05-05T16:48:32.990Z,100873.81
2023-05-05T16:51:09.560Z,100869.03
2023-05-05T16:53:43.583Z,100870.25
2023-05-05T16:56:22.799Z,100867.16
2023-05-05T16:58:57.547Z,100864.03
2023-05-05T17:01:35.670Z,100867.56
2023-05-05T17:04:14.022Z,100866.47
2023-05-05T17:06:53.232Z,100867.63
2023-05-05T17:09:29.876Z,100847.34
2023-05-05T17:12:12.826Z,100867.16
2023-05-05T17:14:54.935Z,100856.94
2023-05-05T17:17:28.825Z,100853.22
2023-05-05T17:20:03.371Z,100869.69
2023-05-05T17:22:43.573Z,100863.88
2023-05-05T17:25:17.987Z,100863.69
2023-05-05T17:28:04.699Z,100868.06
2023-05-05T17:30:43.343Z,100865.00
2023-05-05T17:33:32.070Z,100872.16
2023-05-05T17:36:12.231Z,100870.59
2023-05-05T17:38:51.466Z,100863.56
2023-05-05T17:41:28.734Z,100850.81
2023-05-05T17:44:05.955Z,100876.28
2023-05-05T17:46:48.528Z,100877.59
2023-05-05T17:49:29.174Z,100871.63
2023-05-05T17:52:09.894Z,100871.91
2023-05-05T17:54:49.832Z,100887.72
2023-05-05T17:57:33.575Z,100882.31
2023-05-05T18:00:16.226Z,100879.97
2023-05-05T18:02:48.795Z,100882.47
2023-05-05T18:05:21.261Z,100884.19
2023-05-05T18:07:55.367Z,100880.13
2023-05-05T18:10:36.089Z,100886.06
2023-05-05T18:13:21.890Z,100889.03
2023-05-05T18:16:07.760Z,100876.19
2023-05-05T18:18:46.002Z,100887.03
2023-05-05T18:21:21.875Z,100893.09
2023-05-05T18:24:04.635Z,100875.91
2023-05-05T18:26:45.051Z,100895.84
2023-05-05T18:29:17.349Z,100891.28
2023-05-05T18:31:54.994Z,100872.22
2023-05-05T18:34:35.629Z,100893.97
2023-05-05T18:37:10.628Z,100902.75
2023-05-05T18:39:51.102Z,100896.28
2023-05-05T18:42:27.498Z,100892.84
2023-05-05T18:45:08.396Z,100915.63
2023-05-05T18:47:53.998Z,100897.97
2023-05-05T18:50:32.954Z,100913.69
2023-05-05T18:53:18.922Z,100915.81
2023-05-05T18:56:01.371Z,100908.41
2023-05-05T18:58:41.664Z,100919.22
2023-05-05T19:01:24.103Z,100920.13
2023-05-05T19:04:00.525Z,100921.31
2023-05-05T19:06:36.806Z,100926.97
2023-05-05T19:09:15.749Z,100900.97
2023-05-05T19:11:56.319Z,100925.81
2023-05-05T19:14:27.364Z,100917.22
2023-05-05T19:17:11.020Z,100909.56
2023-05-05T19:19:47.565Z,100912.78
2023-05-05T19:22:33.588Z,100922.75
2023-05-05T19:25:14.827Z,100925.72
2023-05-05T19:28:02.405Z,100924.84
2023-05-05T19:30:44.429Z,100932.97
2023-05-05T19:33:19.555Z,100928.75
2023-05-05T19:35:59.974Z,100920.56
2023-05-05T19:38:44.991Z,100915.00
2023-05-05T19:41:27.601Z,100928.22
2023-05-05T19:44:07.162Z,100921.59
2023-05-05T19:46:44.105Z,100926.41
2023-05-05T19:49:23.260Z,100929.94
2023-05-05T19:52:04.026Z,100904.16
2023-05-05T19:54:46.040Z,100923.00
2023-05-05T19:57:22.776Z,100923.44
2023-05-05T20:00:00.942Z,100921.59
2023-05-05T20:02:43.256Z,100930.69
2023-05-05T20:05:26.715Z,100923.22
2023-05-05T20:08:07.435Z,100915.00
2023-05-05T20:10:47.274Z,100918.41
2023-05-05T20:13:36.800Z,100918.72
2023-05-05T20:16:27.243Z,100916.22
2023-05-05T20:19:02.728Z,100914.84
2023-05-05T20:21:43.832Z,100911.63
2023-05-05T20:24:21.185Z,100908.66
2023-05-05T20:27:14.435Z,100913.19
2023-05-05T20:29:52.729Z,100910.19
2023-05-05T20:32:27.451Z,100907.19
2023-05-05T20:35:08.653Z,100907.72
2023-05-05T20:37:40.819Z,100909.03
2023-05-05T20:40:17.268Z,100904.78
2023-05-05T20:42:52.973Z,100910.59
2023-05-05T20:45:31.717Z,100893.34
2023-05-05T20:48:08.000Z,100878.22
2023-05-05T20:50:46.413Z,100900.34
2023-05-05T20:53:22.972Z,100914.94
2023-05-05T20:56:06.427Z,100912.13
2023-05-05T20:58:45.500Z,100911.38
2023-05-05T21:01:21.275Z,100878.44
2023-05-05T21:04:01.842Z,100914.78
2023-05-05T21:06:43.056Z,100909.66
2023-05-05T21:09:23.193Z,100899.06
2023-05-05T21:12:00.360Z,100900.38
2023-05-05T21:14:37.006Z,100909.34
2023-05-05T21:17:21.067Z,100906.94
2023-05-05T21:19:55.737Z,100906.47
2023-05-05T21:22:33.199Z,100906.00
2023-05-05T21:25:18.722Z,100910.94
2023-05-05T21:28:03.885Z,100909.81
2023-05-05T21:30:39.743Z,100905.66
2023-05-05T21:33:26.208Z,100897.00
2023-05-05T21:36:02.726Z,100905.50
2023-05-05T21:38:39.325Z,100908.84
2023-05-05T21:41:15.520Z,100909.03
2023-05-05T21:43:59.549Z,100900.09
2023-05-05T21:46:34.191Z,100896.56
2023-05-05T21:49:19.499Z,100897.00
2023-05-05T21:52:00.672Z,100901.34
2023-05-05T21:54:39.241Z,100898.13
2023-05-05T21:57:12.781Z,100903.13
2023-05-05T21:59:49.073Z,100891.72
2023-05-05T22:02:26.942Z,100894.00
2023-05-05T22:05:01.691Z,100894.66
2023-05-05T22:07:35.304Z,100894.66
2023-05-05T22:10:12.026Z,100883.94
2023-05-05T22:12:52.355Z,100889.38
2023-05-05T22:15:38.977Z,100887.94
2023-05-05T22:18:18.850Z,100889.56
2023-05-05T22:21:06.757Z,100850.69
2023-05-05T22:23:48.574Z,100883.81
2023-05-05T22:26:27.457Z,100884.75
2023-05-05T22:29:04.778Z,100885.06
2023-05-05T22:31:39.833Z,100882.69
2023-05-05T22:34:18.553Z,100882.03
2023-05-05T22:36:55.643Z,100876.09
2023-05-05T22:39:36.895Z,100861.41
2023-05-05T22:42:14.235Z,100848.47
2023-05-05T22:44:49.493Z,100875.97
2023-05-05T22:47:34.589Z,100853.63
2023-05-05T22:50:11.503Z,100880.34
2023-05-05T22:52:49.942Z,100878.94
2023-05-05T22:55:25.197Z,100879.88
2023-05-05T22:58:01.413Z,100873.31
2023-05-05T23:00:40.990Z,100865.31
2023-05-05T23:03:17.840Z,100882.75
2023-05-05T23:06:02.768Z,100879.38
2023-05-05T23:08:50.629Z,100867.53
2023-05-05T23:11:25.364Z,100877.59
2023-05-05T23:14:17.196Z,100876.63
2023-05-05T23:16:54.002Z,100865.91
2023-05-05T23:19:38.291Z,100861.88
2023-05-05T23:22:13.937Z,100852.59
2023-05-05T23:24:49.916Z,100853.75
2023-05-05T23:27:26.306Z,100844.25
2023-05-05T23:30:11.177Z,100858.53
2023-05-05T23:33:01.391Z,100851.78
2023-05-05T23:35:46.567Z,100849.22
2023-05-05T23:38:20.775Z,100842.59
2023-05-05T23:41:00.377Z,100849.00
2023-05-05T23:43:33.273Z,100852.00
2023-05-05T23:46:27.708Z,100847.22
2023-05-05T23:49:10.651Z,100816.56
2023-05-05T23:51:56.692Z,100843.75
2023-05-05T23:54:34.188Z,100843.41
2023-05-05T23:57:15.037Z,100844.97
2023-05-05T23:59:49.791Z,100850.34
